Airport Name : Spokane Intl

Other Name : Spokane Intl

ICAO : KGEG

IATA : GEG

FAA : GEG

Latitude : 47.619861

Longitude : -117.533833

Country : United States

Local Date and Time : 24 Sep 2020 04:26

 

TAF (Terminal Aerodrome Forecast)

KGEG 241120Z 2412/2512 21018G25KT P6SM BKN012 OVC020 FM241600 22014G24KT P6SM SCT015 BKN030 FM241800 22017G29KT P6SM VCSH FEW035 SCT100 FM242100 23017G29KT P6SM VCSH SCT050 BKN100 FM250200 23012G21KT P6SM SCT050 BKN120 FM250500 21008KT P6SM FEW050 SCT120 BKN200

 

METAR (METeorological Aerodrome Report)

KGEG 241053Z 22019G25KT 10SM BKN010 OVC015 13/11 A2983 RMK AO2 PK WND 23027/1038 SLP090 T01330111

KGEG 240953Z 21018G25KT 10SM BKN012 OVC020 13/11 A2982 RMK AO2 PK WND 22026/0939 SLP086 T01330111

KGEG 240853Z 21019G26KT 10SM SCT012 BKN019 OVC050 13/11 A2982 RMK AO2 PK WND 20028/0820 RAE40 SLP087 P0001 60018 T01330111 53004

KGEG 240835Z 20018G26KT 10SM -RA SCT013 BKN019 OVC050 14/12 A2982 RMK AO2 PK WND 20028/0820 P0001 T01390117

KGEG 240809Z 20015G21KT 10SM -RA BKN011 BKN070 OVC100 14/12 A2981 RMK AO2 P0001 T01390122

KGEG 240753Z 18013G20KT 9SM -RA FEW010 BKN065 OVC090 14/12 A2980 RMK AO2 SLP082 P0008 T01390122 402330133

To Charter a Jet Click here.